sensor_id;sensor_type;location;lat;lon;timestamp;P1;durP1;ratioP1;P2;durP2;ratioP2
48026;SDS011;50714;49.208;5.364;2023-06-10T00:06:35;2.65;;;2.13;;
48026;SDS011;50714;49.208;5.364;2023-06-10T00:16:36;3.17;;;2.33;;
48026;SDS011;50714;49.208;5.364;2023-06-10T00:26:36;2.28;;;2.05;;
48026;SDS011;50714;49.208;5.364;2023-06-10T00:36:36;2.33;;;2.00;;
48026;SDS011;50714;49.208;5.364;2023-06-10T00:46:37;2.55;;;2.10;;
48026;SDS011;50714;49.208;5.364;2023-06-10T00:56:37;2.25;;;1.95;;
48026;SDS011;50714;49.208;5.364;2023-06-10T01:17:15;3.15;;;2.55;;
48026;SDS011;50714;49.208;5.364;2023-06-10T01:27:18;2.70;;;2.45;;
48026;SDS011;50714;49.208;5.364;2023-06-10T01:37:21;2.75;;;2.33;;
48026;SDS011;50714;49.208;5.364;2023-06-10T01:47:25;4.32;;;2.47;;
48026;SDS011;50714;49.208;5.364;2023-06-10T01:57:25;2.38;;;1.90;;
48026;SDS011;50714;49.208;5.364;2023-06-10T02:07:26;2.90;;;2.58;;
48026;SDS011;50714;49.208;5.364;2023-06-10T02:17:26;2.35;;;2.15;;
48026;SDS011;50714;49.208;5.364;2023-06-10T02:27:26;2.95;;;2.53;;
48026;SDS011;50714;49.208;5.364;2023-06-10T02:37:27;3.88;;;2.72;;
48026;SDS011;50714;49.208;5.364;2023-06-10T02:47:27;4.93;;;2.70;;
48026;SDS011;50714;49.208;5.364;2023-06-10T02:57:28;3.58;;;2.97;;
48026;SDS011;50714;49.208;5.364;2023-06-10T03:07:28;3.15;;;2.85;;
48026;SDS011;50714;49.208;5.364;2023-06-10T03:17:28;3.67;;;2.75;;
48026;SDS011;50714;49.208;5.364;2023-06-10T03:27:29;3.70;;;2.33;;
48026;SDS011;50714;49.208;5.364;2023-06-10T03:37:30;3.28;;;2.88;;
48026;SDS011;50714;49.208;5.364;2023-06-10T03:47:34;3.13;;;2.50;;
48026;SDS011;50714;49.208;5.364;2023-06-10T03:57:38;5.50;;;3.17;;
48026;SDS011;50714;49.208;5.364;2023-06-10T04:07:38;4.18;;;2.97;;
48026;SDS011;50714;49.208;5.364;2023-06-10T04:17:40;3.78;;;2.65;;
48026;SDS011;50714;49.208;5.364;2023-06-10T04:27:41;4.55;;;3.38;;
48026;SDS011;50714;49.208;5.364;2023-06-10T04:37:41;3.92;;;3.33;;
48026;SDS011;50714;49.208;5.364;2023-06-10T04:47:42;4.45;;;3.55;;
48026;SDS011;50714;49.208;5.364;2023-06-10T04:57:43;4.47;;;3.05;;
48026;SDS011;50714;49.208;5.364;2023-06-10T05:07:43;4.10;;;3.45;;
48026;SDS011;50714;49.208;5.364;2023-06-10T05:17:44;3.83;;;3.20;;
48026;SDS011;50714;49.208;5.364;2023-06-10T05:27:44;3.33;;;2.88;;
48026;SDS011;50714;49.208;5.364;2023-06-10T05:37:45;4.88;;;3.50;;
48026;SDS011;50714;49.208;5.364;2023-06-10T05:47:45;4.05;;;3.38;;
48026;SDS011;50714;49.208;5.364;2023-06-10T05:57:45;4.15;;;3.22;;
48026;SDS011;50714;49.208;5.364;2023-06-10T06:07:46;4.43;;;3.50;;
48026;SDS011;50714;49.208;5.364;2023-06-10T06:17:46;3.53;;;3.17;;
48026;SDS011;50714;49.208;5.364;2023-06-10T06:27:46;3.90;;;3.17;;
48026;SDS011;50714;49.208;5.364;2023-06-10T06:37:47;4.28;;;3.70;;
48026;SDS011;50714;49.208;5.364;2023-06-10T06:47:47;4.25;;;3.60;;
48026;SDS011;50714;49.208;5.364;2023-06-10T06:57:47;3.47;;;3.17;;
48026;SDS011;50714;49.208;5.364;2023-06-10T07:07:48;3.10;;;2.80;;
48026;SDS011;50714;49.208;5.364;2023-06-10T07:17:54;4.28;;;3.08;;
48026;SDS011;50714;49.208;5.364;2023-06-10T07:27:55;3.67;;;3.20;;
48026;SDS011;50714;49.208;5.364;2023-06-10T07:37:55;4.40;;;3.53;;
48026;SDS011;50714;49.208;5.364;2023-06-10T07:47:56;3.75;;;3.40;;
48026;SDS011;50714;49.208;5.364;2023-06-10T07:57:56;4.93;;;3.60;;
48026;SDS011;50714;49.208;5.364;2023-06-10T08:07:57;5.23;;;4.10;;
48026;SDS011;50714;49.208;5.364;2023-06-10T08:17:57;3.80;;;3.40;;
48026;SDS011;50714;49.208;5.364;2023-06-10T08:27:57;4.30;;;3.45;;
48026;SDS011;50714;49.208;5.364;2023-06-10T08:37:58;4.10;;;3.70;;
48026;SDS011;50714;49.208;5.364;2023-06-10T08:47:58;3.50;;;3.20;;
48026;SDS011;50714;49.208;5.364;2023-06-10T08:58:00;3.65;;;3.22;;
48026;SDS011;50714;49.208;5.364;2023-06-10T09:08:01;3.60;;;3.13;;
48026;SDS011;50714;49.208;5.364;2023-06-10T09:18:02;4.28;;;3.85;;
48026;SDS011;50714;49.208;5.364;2023-06-10T09:28:02;4.22;;;3.40;;
48026;SDS011;50714;49.208;5.364;2023-06-10T09:38:03;3.97;;;2.45;;
48026;SDS011;50714;49.208;5.364;2023-06-10T09:48:04;6.05;;;4.68;;
48026;SDS011;50714;49.208;5.364;2023-06-10T09:58:04;8.73;;;7.93;;
48026;SDS011;50714;49.208;5.364;2023-06-10T10:08:05;6.78;;;6.18;;
48026;SDS011;50714;49.208;5.364;2023-06-10T10:18:11;4.20;;;3.33;;
48026;SDS011;50714;49.208;5.364;2023-06-10T10:28:18;3.97;;;2.92;;
48026;SDS011;50714;49.208;5.364;2023-06-10T10:38:21;4.60;;;3.70;;
48026;SDS011;50714;49.208;5.364;2023-06-10T10:48:22;2.78;;;2.45;;
48026;SDS011;50714;49.208;5.364;2023-06-10T10:58:24;2.33;;;1.90;;
48026;SDS011;50714;49.208;5.364;2023-06-10T11:18:29;3.00;;;1.90;;
48026;SDS011;50714;49.208;5.364;2023-06-10T11:28:31;2.95;;;2.60;;
48026;SDS011;50714;49.208;5.364;2023-06-10T11:38:31;2.95;;;2.50;;
48026;SDS011;50714;49.208;5.364;2023-06-10T11:48:32;2.08;;;1.70;;
48026;SDS011;50714;49.208;5.364;2023-06-10T11:58:33;1.50;;;1.30;;
48026;SDS011;50714;49.208;5.364;2023-06-10T12:08:34;1.90;;;1.70;;
48026;SDS011;50714;49.208;5.364;2023-06-10T12:18:43;8.48;;;7.78;;
48026;SDS011;50714;49.208;5.364;2023-06-10T12:28:50;4.53;;;4.00;;
48026;SDS011;50714;49.208;5.364;2023-06-10T12:38:51;25.45;;;23.35;;
48026;SDS011;50714;49.208;5.364;2023-06-10T12:48:52;73.28;;;66.75;;
48026;SDS011;50714;49.208;5.364;2023-06-10T12:58:54;33.53;;;30.80;;
48026;SDS011;50714;49.208;5.364;2023-06-10T13:08:54;8.40;;;7.70;;
48026;SDS011;50714;49.208;5.364;2023-06-10T13:18:54;2.90;;;2.60;;
48026;SDS011;50714;49.208;5.364;2023-06-10T13:28:55;2.00;;;1.85;;
48026;SDS011;50714;49.208;5.364;2023-06-10T13:38:55;2.35;;;2.15;;
48026;SDS011;50714;49.208;5.364;2023-06-10T13:48:55;2.50;;;2.10;;
48026;SDS011;50714;49.208;5.364;2023-06-10T13:58:56;2.20;;;2.00;;
48026;SDS011;50714;49.208;5.364;2023-06-10T14:08:56;2.47;;;2.28;;
48026;SDS011;50714;49.208;5.364;2023-06-10T14:18:57;2.42;;;2.10;;
48026;SDS011;50714;49.208;5.364;2023-06-10T14:28:57;2.72;;;1.60;;
48026;SDS011;50714;49.208;5.364;2023-06-10T14:38:57;2.75;;;2.20;;
48026;SDS011;50714;49.208;5.364;2023-06-10T14:48:58;2.25;;;1.80;;
48026;SDS011;50714;49.208;5.364;2023-06-10T14:58:59;1.92;;;1.73;;
48026;SDS011;50714;49.208;5.364;2023-06-10T15:08:59;1.90;;;1.77;;
48026;SDS011;50714;49.208;5.364;2023-06-10T15:18:59;2.45;;;1.95;;
48026;SDS011;50714;49.208;5.364;2023-06-10T15:29:00;1.73;;;1.63;;
48026;SDS011;50714;49.208;5.364;2023-06-10T15:39:04;2.40;;;2.20;;
48026;SDS011;50714;49.208;5.364;2023-06-10T15:49:06;2.10;;;1.90;;
48026;SDS011;50714;49.208;5.364;2023-06-10T15:59:07;2.05;;;1.80;;
48026;SDS011;50714;49.208;5.364;2023-06-10T16:09:07;1.88;;;1.50;;
48026;SDS011;50714;49.208;5.364;2023-06-10T16:19:08;2.47;;;2.17;;
48026;SDS011;50714;49.208;5.364;2023-06-10T16:29:09;2.28;;;2.00;;
48026;SDS011;50714;49.208;5.364;2023-06-10T16:39:10;2.40;;;2.10;;
48026;SDS011;50714;49.208;5.364;2023-06-10T16:49:11;2.67;;;2.25;;
48026;SDS011;50714;49.208;5.364;2023-06-10T16:59:11;2.22;;;2.00;;
48026;SDS011;50714;49.208;5.364;2023-06-10T17:09:12;2.67;;;1.80;;
48026;SDS011;50714;49.208;5.364;2023-06-10T17:19:12;2.05;;;1.85;;
48026;SDS011;50714;49.208;5.364;2023-06-10T17:29:13;3.13;;;2.35;;
48026;SDS011;50714;49.208;5.364;2023-06-10T17:39:13;1.88;;;1.75;;
48026;SDS011;50714;49.208;5.364;2023-06-10T17:49:14;1.83;;;1.67;;
48026;SDS011;50714;49.208;5.364;2023-06-10T17:59:14;1.70;;;1.60;;
48026;SDS011;50714;49.208;5.364;2023-06-10T18:09:15;1.70;;;1.60;;
48026;SDS011;50714;49.208;5.364;2023-06-10T18:19:15;3.65;;;3.35;;
48026;SDS011;50714;49.208;5.364;2023-06-10T18:29:16;3.60;;;2.28;;
48026;SDS011;50714;49.208;5.364;2023-06-10T18:39:16;2.43;;;1.90;;
48026;SDS011;50714;49.208;5.364;2023-06-10T18:49:17;3.53;;;1.90;;
48026;SDS011;50714;49.208;5.364;2023-06-10T18:59:17;2.55;;;2.35;;
48026;SDS011;50714;49.208;5.364;2023-06-10T19:09:17;4.95;;;4.45;;
48026;SDS011;50714;49.208;5.364;2023-06-10T19:19:18;3.40;;;3.10;;
48026;SDS011;50714;49.208;5.364;2023-06-10T19:29:18;2.55;;;2.35;;
48026;SDS011;50714;49.208;5.364;2023-06-10T19:39:18;3.00;;;2.20;;
48026;SDS011;50714;49.208;5.364;2023-06-10T19:49:19;3.95;;;3.33;;
48026;SDS011;50714;49.208;5.364;2023-06-10T19:59:19;5.90;;;3.20;;
48026;SDS011;50714;49.208;5.364;2023-06-10T20:09:19;2.58;;;2.38;;
48026;SDS011;50714;49.208;5.364;2023-06-10T20:19:20;2.58;;;2.38;;
48026;SDS011;50714;49.208;5.364;2023-06-10T20:29:20;2.63;;;1.92;;
48026;SDS011;50714;49.208;5.364;2023-06-10T20:39:21;2.40;;;2.13;;
48026;SDS011;50714;49.208;5.364;2023-06-10T20:49:22;3.17;;;2.83;;
48026;SDS011;50714;49.208;5.364;2023-06-10T20:59:22;2.50;;;2.30;;
48026;SDS011;50714;49.208;5.364;2023-06-10T21:09:23;2.92;;;2.60;;
48026;SDS011;50714;49.208;5.364;2023-06-10T21:19:23;3.00;;;2.50;;
48026;SDS011;50714;49.208;5.364;2023-06-10T21:29:23;4.03;;;2.75;;
48026;SDS011;50714;49.208;5.364;2023-06-10T21:39:24;3.28;;;2.90;;
48026;SDS011;50714;49.208;5.364;2023-06-10T21:49:24;2.35;;;2.15;;
48026;SDS011;50714;49.208;5.364;2023-06-10T21:59:24;2.47;;;2.28;;
48026;SDS011;50714;49.208;5.364;2023-06-10T22:09:25;2.45;;;2.22;;
48026;SDS011;50714;49.208;5.364;2023-06-10T22:19:25;3.03;;;2.72;;
48026;SDS011;50714;49.208;5.364;2023-06-10T22:29:26;3.58;;;3.05;;
48026;SDS011;50714;49.208;5.364;2023-06-10T22:39:26;3.13;;;2.83;;
48026;SDS011;50714;49.208;5.364;2023-06-10T22:49:26;7.55;;;3.60;;
48026;SDS011;50714;49.208;5.364;2023-06-10T22:59:27;4.15;;;2.92;;
48026;SDS011;50714;49.208;5.364;2023-06-10T23:09:27;4.63;;;3.35;;
48026;SDS011;50714;49.208;5.364;2023-06-10T23:19:27;3.08;;;2.78;;
48026;SDS011;50714;49.208;5.364;2023-06-10T23:29:28;4.03;;;3.10;;
48026;SDS011;50714;49.208;5.364;2023-06-10T23:39:29;3.63;;;3.17;;
48026;SDS011;50714;49.208;5.364;2023-06-10T23:49:29;2.75;;;2.55;;
48026;SDS011;50714;49.208;5.364;2023-06-10T23:59:29;2.80;;;2.60;;
